createdAt,value
2023-02-26T00:03:45.934Z,2.40
2023-02-26T00:08:49.026Z,2.70
2023-02-26T00:13:54.016Z,2.40
2023-02-26T00:18:57.577Z,1.97
2023-02-26T00:24:02.170Z,2.40
2023-02-26T00:29:07.226Z,2.10
2023-02-26T00:34:13.700Z,2.33
2023-02-26T00:39:33.443Z,2.60
2023-02-26T00:44:38.594Z,2.10
2023-02-26T00:49:51.839Z,2.50
2023-02-26T00:54:54.795Z,2.50
2023-02-26T00:59:59.092Z,2.67
2023-02-26T01:05:03.234Z,1.90
2023-02-26T01:10:07.190Z,2.50
2023-02-26T01:15:12.519Z,1.70
2023-02-26T01:20:19.391Z,2.00
2023-02-26T01:25:26.582Z,2.33
2023-02-26T01:30:31.887Z,1.80
2023-02-26T01:35:42.898Z,2.00
2023-02-26T01:41:18.319Z,2.07
2023-02-26T01:46:32.386Z,2.43
2023-02-26T01:51:46.574Z,2.30
2023-02-26T01:56:52.144Z,3.27
2023-02-26T02:01:59.318Z,2.80
2023-02-26T02:07:02.646Z,2.70
2023-02-26T02:12:18.603Z,3.10
2023-02-26T02:17:29.566Z,3.50
2023-02-26T02:22:59.712Z,3.50
2023-02-26T02:28:09.322Z,3.20
2023-02-26T02:33:17.525Z,3.50
2023-02-26T02:38:24.735Z,3.37
2023-02-26T02:43:34.564Z,4.00
2023-02-26T02:48:45.219Z,3.80
2023-02-26T02:53:53.480Z,3.50
2023-02-26T02:59:02.405Z,3.80
2023-02-26T03:04:09.906Z,3.87
2023-02-26T03:09:12.948Z,3.70
2023-02-26T03:14:18.401Z,3.50
2023-02-26T03:19:29.051Z,3.90
2023-02-26T03:24:39.561Z,3.73
2023-02-26T03:29:52.445Z,4.30
2023-02-26T03:35:02.938Z,5.80
2023-02-26T03:40:11.869Z,4.70
2023-02-26T03:45:19.265Z,4.50
2023-02-26T03:50:30.425Z,5.20
2023-02-26T03:55:59.256Z,4.30
2023-02-26T04:01:43.700Z,4.37
2023-02-26T04:06:49.189Z,4.47
2023-02-26T04:11:55.764Z,4.40
2023-02-26T04:16:58.766Z,8.57
2023-02-26T04:22:03.232Z,5.00
2023-02-26T04:27:06.527Z,5.60
2023-02-26T04:32:10.023Z,4.47
2023-02-26T04:37:14.424Z,4.53
2023-02-26T04:42:18.852Z,4.80
2023-02-26T04:47:21.873Z,4.17
2023-02-26T04:52:26.691Z,4.80
2023-02-26T04:57:29.723Z,3.70
2023-02-26T05:02:32.838Z,4.20
2023-02-26T05:07:37.104Z,3.80
2023-02-26T05:12:40.047Z,3.93
2023-02-26T05:17:43.054Z,3.73
2023-02-26T05:22:47.414Z,2.83
2023-02-26T05:27:50.351Z,3.10
2023-02-26T05:32:54.480Z,3.27
2023-02-26T05:37:58.777Z,3.77
2023-02-26T05:43:01.704Z,3.40
2023-02-26T05:48:05.005Z,3.07
2023-02-26T05:53:09.295Z,3.20
2023-02-26T05:58:12.344Z,3.60
2023-02-26T06:03:15.580Z,3.83
2023-02-26T06:08:19.856Z,3.57
2023-02-26T06:13:22.828Z,3.83
2023-02-26T06:18:25.733Z,3.53
2023-02-26T06:23:30.178Z,4.43
2023-02-26T06:28:33.153Z,3.80
2023-02-26T06:33:36.081Z,4.20
2023-02-26T06:38:40.358Z,5.00
2023-02-26T06:43:43.353Z,4.07
2023-02-26T06:48:46.230Z,3.80
2023-02-26T06:53:50.642Z,3.80
2023-02-26T06:58:53.551Z,4.03
2023-02-26T07:03:56.469Z,3.87
2023-02-26T07:09:00.756Z,3.80
2023-02-26T07:14:03.700Z,3.93
2023-02-26T07:19:06.599Z,3.73
2023-02-26T07:24:10.965Z,3.70
2023-02-26T07:29:13.934Z,3.20
2023-02-26T07:34:16.908Z,2.87
2023-02-26T07:39:21.328Z,5.53
2023-02-26T07:44:24.179Z,3.60
2023-02-26T07:49:27.424Z,3.20
2023-02-26T07:54:31.696Z,3.43
2023-02-26T07:59:34.769Z,3.40
2023-02-26T08:04:37.766Z,3.47
2023-02-26T08:09:42.111Z,3.47
2023-02-26T08:14:45.006Z,2.90
2023-02-26T08:19:47.976Z,2.90
2023-02-26T08:24:52.447Z,3.47
2023-02-26T08:29:55.410Z,2.97
2023-02-26T08:34:58.334Z,3.07
2023-02-26T08:40:02.651Z,2.67
2023-02-26T08:45:06.739Z,3.00
2023-02-26T08:50:11.259Z,2.47
2023-02-26T08:55:15.858Z,2.50
2023-02-26T09:00:19.563Z,2.47
2023-02-26T09:05:23.092Z,2.90
2023-02-26T09:10:27.814Z,2.57
2023-02-26T09:15:30.761Z,3.40
2023-02-26T09:20:35.376Z,2.53
2023-02-26T09:25:40.126Z,2.80
2023-02-26T09:30:43.430Z,2.80
2023-02-26T09:35:49.002Z,2.70
2023-02-26T09:40:57.709Z,2.17
2023-02-26T09:46:05.992Z,2.40
2023-02-26T09:51:17.859Z,2.40
2023-02-26T09:56:27.830Z,2.40
2023-02-26T10:01:35.805Z,1.90
2023-02-26T10:06:45.644Z,1.87
2023-02-26T10:11:54.184Z,2.23
2023-02-26T10:17:02.189Z,2.53
2023-02-26T10:22:17.893Z,1.87
2023-02-26T10:27:32.714Z,2.47
2023-02-26T10:32:40.022Z,2.47
2023-02-26T10:37:49.283Z,2.40
2023-02-26T10:42:58.440Z,2.10
2023-02-26T10:48:12.086Z,2.03
2023-02-26T10:53:15.633Z,2.50
2023-02-26T10:58:23.688Z,2.40
2023-02-26T11:03:33.520Z,2.27
2023-02-26T11:08:45.217Z,2.50
2023-02-26T11:13:49.434Z,2.60
2023-02-26T11:18:56.078Z,1.83
2023-02-26T11:24:03.130Z,2.07
2023-02-26T11:29:07.690Z,1.70
2023-02-26T11:34:13.200Z,1.60
2023-02-26T11:39:18.780Z,1.77
2023-02-26T11:44:33.467Z,1.70
2023-02-26T11:49:36.763Z,2.30
2023-02-26T11:54:48.123Z,1.80
2023-02-26T11:59:55.142Z,2.00
2023-02-26T12:05:02.047Z,1.67
2023-02-26T12:10:14.560Z,1.77
2023-02-26T12:15:33.428Z,1.93
2023-02-26T12:20:44.581Z,1.70
2023-02-26T12:26:05.029Z,1.70
2023-02-26T12:31:33.491Z,1.80
2023-02-26T12:36:51.926Z,2.10
2023-02-26T12:42:09.914Z,1.60
2023-02-26T12:47:29.853Z,1.40
2023-02-26T12:52:50.609Z,1.80
2023-02-26T12:58:28.828Z,1.90
2023-02-26T13:03:48.213Z,1.40
2023-02-26T13:09:00.081Z,1.13
2023-02-26T13:14:29.933Z,1.70
2023-02-26T13:19:44.614Z,1.50
2023-02-26T13:24:53.871Z,2.00
2023-02-26T13:30:20.618Z,2.20
2023-02-26T13:35:29.318Z,1.90
2023-02-26T13:40:55.869Z,1.90
2023-02-26T13:46:15.948Z,2.33
2023-02-26T13:51:30.335Z,2.43
2023-02-26T13:56:56.343Z,1.80
2023-02-26T14:02:03.567Z,1.93
2023-02-26T14:07:14.207Z,3.00
2023-02-26T14:12:43.859Z,2.53
2023-02-26T14:17:50.445Z,2.70
2023-02-26T14:23:13.728Z,2.03
2023-02-26T14:28:34.529Z,1.63
2023-02-26T14:33:43.777Z,2.13
2023-02-26T14:38:49.902Z,1.90
2023-02-26T14:44:01.251Z,3.27
2023-02-26T14:49:05.156Z,2.70
2023-02-26T14:54:22.146Z,2.37
2023-02-26T14:59:50.445Z,2.03
2023-02-26T15:05:22.047Z,2.10
2023-02-26T15:10:40.105Z,1.47
2023-02-26T15:15:54.081Z,1.93
2023-02-26T15:21:09.846Z,2.17
2023-02-26T15:26:21.137Z,2.00
2023-02-26T15:31:31.736Z,2.73
2023-02-26T15:36:34.973Z,1.67
2023-02-26T15:41:40.508Z,1.80
2023-02-26T15:46:47.016Z,1.90
2023-02-26T15:51:50.972Z,2.20
2023-02-26T15:56:55.926Z,2.80
2023-02-26T16:01:59.278Z,2.10
2023-02-26T16:07:02.723Z,1.80
2023-02-26T16:12:10.604Z,3.30
2023-02-26T16:17:17.947Z,2.20
2023-02-26T16:22:23.868Z,2.60
2023-02-26T16:27:30.322Z,5.20
2023-02-26T16:32:36.101Z,3.40
2023-02-26T16:37:45.129Z,4.10
2023-02-26T16:42:55.207Z,2.97
2023-02-26T16:47:59.848Z,2.43
2023-02-26T16:53:09.050Z,6.33
2023-02-26T16:58:16.653Z,3.90
2023-02-26T17:03:22.642Z,4.27
2023-02-26T17:08:29.081Z,3.50
2023-02-26T17:13:35.630Z,6.20
2023-02-26T17:18:38.603Z,7.40
2023-02-26T17:23:41.548Z,7.97
2023-02-26T17:28:46.312Z,5.73
2023-02-26T17:33:50.359Z,4.53
2023-02-26T17:38:53.261Z,5.80
2023-02-26T17:43:57.648Z,7.40
2023-02-26T17:49:00.618Z,4.43
2023-02-26T17:54:03.551Z,3.50
2023-02-26T17:59:12.048Z,2.53
2023-02-26T18:04:16.704Z,2.27
2023-02-26T18:09:19.774Z,2.70
2023-02-26T18:14:24.374Z,2.90
2023-02-26T18:19:27.444Z,3.57
2023-02-26T18:24:32.273Z,6.20
2023-02-26T18:29:36.644Z,4.30
2023-02-26T18:34:39.645Z,4.70
2023-02-26T18:39:43.344Z,4.20
2023-02-26T18:44:47.806Z,4.33
2023-02-26T18:49:52.669Z,4.90
2023-02-26T18:54:55.634Z,5.93
2023-02-26T19:00:00.343Z,7.33
2023-02-26T19:05:03.714Z,17.00
2023-02-26T19:10:09.426Z,5.47
2023-02-26T19:15:14.295Z,8.70
2023-02-26T19:20:18.020Z,4.97
2023-02-26T19:25:24.468Z,3.83
2023-02-26T19:30:28.893Z,4.37
2023-02-26T19:35:31.897Z,4.80
2023-02-26T19:40:34.807Z,4.47
2023-02-26T19:45:39.219Z,4.90
2023-02-26T19:50:42.137Z,3.67
2023-02-26T19:55:45.051Z,5.13
2023-02-26T20:00:49.354Z,4.97
2023-02-26T20:05:52.955Z,3.73
2023-02-26T20:10:57.282Z,3.37
2023-02-26T20:16:02.567Z,3.63
2023-02-26T20:21:08.159Z,4.30
2023-02-26T20:26:14.129Z,4.23
2023-02-26T20:31:18.478Z,7.07
2023-02-26T20:36:21.568Z,4.30
2023-02-26T20:41:24.794Z,3.07
2023-02-26T20:46:30.861Z,3.97
2023-02-26T20:51:33.804Z,3.10
2023-02-26T20:56:36.808Z,3.17
2023-02-26T21:01:41.086Z,2.93
2023-02-26T21:06:44.349Z,2.93
2023-02-26T21:11:47.629Z,2.57
2023-02-26T21:16:51.941Z,2.70
2023-02-26T21:21:54.877Z,2.70
2023-02-26T21:26:57.776Z,2.57
2023-02-26T21:32:03.639Z,2.50
2023-02-26T21:37:08.442Z,2.40
2023-02-26T21:42:13.841Z,2.60
2023-02-26T21:47:18.295Z,3.23
2023-02-26T21:52:21.213Z,2.67
2023-02-26T21:57:24.371Z,3.00
2023-02-26T22:02:31.089Z,5.00
2023-02-26T22:07:34.222Z,2.20
2023-02-26T22:12:37.114Z,2.70
2023-02-26T22:17:41.368Z,2.20
2023-02-26T22:22:44.324Z,2.80
2023-02-26T22:27:47.234Z,2.30
2023-02-26T22:32:51.501Z,2.03
2023-02-26T22:37:54.386Z,2.23
2023-02-26T22:42:57.429Z,2.47
2023-02-26T22:48:01.783Z,2.80
2023-02-26T22:53:06.958Z,2.10
2023-02-26T22:58:09.867Z,2.23
2023-02-26T23:03:14.752Z,2.30
2023-02-26T23:08:17.692Z,2.80
2023-02-26T23:13:20.624Z,3.13
2023-02-26T23:18:25.016Z,3.20
2023-02-26T23:23:29.496Z,3.20
2023-02-26T23:28:33.138Z,2.63
2023-02-26T23:33:37.404Z,5.67
2023-02-26T23:38:41.115Z,4.27
2023-02-26T23:43:44.002Z,3.90
2023-02-26T23:48:48.258Z,10.40
2023-02-26T23:53:51.361Z,4.07
2023-02-26T23:58:54.259Z,2.77
